Time;durP1;ratioP1;P1;durP2;ratioP2;P2;SDS_P1;SDS_P2;PMS_P1;PMS_P2;Temp;Humidity;BMP_temperature;BMP_pressure;BME280_temperature;BME280_humidity;BME280_pressure;Samples;Min_cycle;Max_cycle;Signal;HPM_P1;HPM_P2
2022/08/12 00:45:05;;;;;;;8.77;7.40;;;19.60;99.90;;;;;;5066128;28;20452;-76
2022/08/12 00:47:32;;;;;;;10.93;8.23;;;;;;;;;;5089857;28;20847;-76
2022/08/12 00:49:57;;;;;;;11.20;7.77;;;19.50;99.90;;;;;;5089294;28;20788;-76
2022/08/12 00:52:23;;;;;;;11.60;7.70;;;19.40;99.90;;;;;;5109323;28;20459;-76
2022/08/12 00:54:56;;;;;;;11.57;7.93;;;19.60;99.90;;;;;;5088135;28;20997;-76
2022/08/12 00:57:28;;;;;;;8.85;7.65;;;19.60;99.90;;;;;;5073197;28;20436;-76
2022/08/12 00:59:56;;;;;;;12.60;8.05;;;19.50;99.90;;;;;;5072125;28;20425;-76
2022/08/12 01:02:25;;;;;;;13.37;8.87;;;19.70;99.90;;;;;;5074386;28;20479;-76
2022/08/12 01:13:22;;;;;;;10.55;8.95;;;;;;;;;;5074007;28;20426;-78
2022/08/12 01:15:57;;;;;;;12.35;9.05;;;19.20;99.90;;;;;;5073782;28;20426;-78
2022/08/12 01:18:27;;;;;;;13.55;8.93;;;19.10;99.90;;;;;;5073616;28;20437;-78
2022/08/12 01:21:05;;;;;;;10.50;8.73;;;19.20;99.90;;;;;;5071320;28;20421;-78
2022/08/12 01:23:34;;;;;;;10.65;8.85;;;19.20;99.90;;;;;;5072907;28;21032;-78
2022/08/12 01:26:02;;;;;;;12.93;9.32;;;19.00;99.90;;;;;;5070740;28;20418;-78
2022/08/12 01:28:30;;;;;;;11.80;9.40;;;19.20;99.90;;;;;;5056602;28;20422;-78
2022/08/12 01:30:57;;;;;;;10.50;9.33;;;19.20;99.90;;;;;;5072096;28;20570;-78
2022/08/12 01:33:24;;;;;;;11.63;9.48;;;;;;;;;;5072839;28;20418;-78
2022/08/12 01:35:54;;;;;;;12.68;9.93;;;;;;;;;;5071951;28;20433;-78
2022/08/12 01:38:22;;;;;;;11.35;9.45;;;18.90;99.90;;;;;;5088045;28;20465;-78
2022/08/12 01:40:48;;;;;;;11.00;9.15;;;;;;;;;;5074212;28;20416;-78
2022/08/12 01:43:20;;;;;;;12.13;9.13;;;18.90;99.90;;;;;;5073471;28;20927;-78
2022/08/12 01:46:01;;;;;;;12.18;9.70;;;18.80;99.90;;;;;;5073148;28;20736;-78
2022/08/12 01:48:38;;;;;;;14.50;10.07;;;;;;;;;;5071377;28;20449;-77
2022/08/12 01:51:20;;;;;;;12.30;9.95;;;;;;;;;;5072187;28;20755;-77
2022/08/12 01:53:57;;;;;;;14.05;10.10;;;;;;;;;;5087737;28;20425;-77
2022/08/12 01:56:26;;;;;;;11.30;9.73;;;18.40;99.90;;;;;;5085834;28;20495;-77
2022/08/12 02:01:40;;;;;;;12.20;10.35;;;18.60;99.90;;;;;;5060255;28;20429;-78
2022/08/12 02:13:08;;;;;;;14.35;10.52;;;;;;;;;;5106400;28;20449;-78
2022/08/12 02:15:43;;;;;;;14.15;11.02;;;18.30;99.90;;;;;;5087408;28;21008;-78
2022/08/12 02:18:21;;;;;;;12.82;10.82;;;18.40;99.90;;;;;;5054870;28;20509;-78
2022/08/12 02:21:18;;;;;;;13.82;11.30;;;18.20;99.90;;;;;;5070940;28;20418;-78
2022/08/12 02:23:45;;;;;;;13.60;11.32;;;18.20;99.90;;;;;;5106097;28;20421;-78
2022/08/12 02:26:14;;;;;;;17.20;11.55;;;18.40;99.90;;;;;;5078676;28;20514;-77
2022/08/12 02:28:41;;;;;;;16.27;11.73;;;;;;;;;;5071240;28;20420;-77
2022/08/12 02:31:07;;;;;;;13.77;11.32;;;18.30;99.90;;;;;;5071918;28;20436;-77
2022/08/12 02:33:34;;;;;;;15.38;11.65;;;;;;;;;;5073695;28;20424;-78
2022/08/12 02:36:01;;;;;;;14.23;12.52;;;18.30;99.90;;;;;;5070076;28;20436;-78
2022/08/12 02:38:29;;;;;;;14.90;12.30;;;;;;;;;;5053783;28;20426;-78
2022/08/12 02:40:56;;;;;;;15.20;12.47;;;;;;;;;;5072689;28;20425;-78
2022/08/12 02:43:28;;;;;;;16.80;12.77;;;;;;;;;;5075368;28;20417;-78
2022/08/12 02:46:00;;;;;;;17.10;12.68;;;;;;;;;;5069077;28;20444;-78
2022/08/12 02:48:45;;;;;;;16.80;12.45;;;;;;;;;;5070004;28;20409;-78
2022/08/12 02:51:15;;;;;;;15.07;12.60;;;17.80;99.90;;;;;;5068592;28;20422;-78
2022/08/12 02:53:43;;;;;;;14.95;12.52;;;17.80;99.90;;;;;;5077660;28;20921;-77
2022/08/12 02:56:11;;;;;;;15.53;12.27;;;17.90;99.90;;;;;;5058618;28;20428;-78
2022/08/12 02:58:37;;;;;;;15.90;12.90;;;;;;;;;;5089728;28;20497;-78
2022/08/12 03:01:08;;;;;;;15.95;12.38;;;17.70;99.90;;;;;;5075158;28;20451;-78
2022/08/12 03:03:36;;;;;;;16.00;12.48;;;17.80;99.90;;;;;;5059841;28;20546;-78
2022/08/12 03:06:11;;;;;;;15.68;13.02;;;18.10;99.90;;;;;;5059589;28;20417;-76
2022/08/12 03:08:42;;;;;;;16.33;13.40;;;17.90;99.90;;;;;;5071893;28;20910;-76
2022/08/12 03:11:47;;;;;;;15.60;13.02;;;;;;;;;;5074461;28;20437;-76
2022/08/12 03:14:14;;;;;;;15.43;13.40;;;;;;;;;;5014235;28;20458;-76
2022/08/12 03:16:43;;;;;;;16.48;13.48;;;17.80;99.90;;;;;;4997736;28;20434;-76
2022/08/12 03:19:09;;;;;;;17.80;13.30;;;17.80;99.90;;;;;;5028922;28;20430;-75
2022/08/12 03:21:39;;;;;;;15.30;13.30;;;;;;;;;;5107191;28;20422;-75
2022/08/12 03:24:07;;;;;;;16.70;13.00;;;;;;;;;;5075756;28;20496;-76
2022/08/12 03:26:35;;;;;;;16.42;13.27;;;17.60;99.90;;;;;;5091609;28;20815;-75
2022/08/12 03:29:03;;;;;;;18.50;13.05;;;;;;;;;;5076329;28;20769;-75
2022/08/12 03:31:32;;;;;;;15.97;12.90;;;;;;;;;;5073301;28;20531;-75
2022/08/12 03:34:11;;;;;;;15.45;12.70;;;17.70;99.90;;;;;;5076724;28;20410;-75
2022/08/12 03:36:39;;;;;;;17.88;12.60;;;17.70;99.90;;;;;;5089809;28;20430;-75
2022/08/12 03:41:53;;;;;;;15.27;12.15;;;17.60;99.90;;;;;;5109150;28;20852;-75
2022/08/12 04:01:21;;;;;;;15.13;11.30;;;;;;;;;;5106972;27;20435;-76
2022/08/12 04:03:51;;;;;;;13.40;10.80;;;17.60;99.90;;;;;;5076128;28;20398;-76
2022/08/12 04:06:27;;;;;;;13.40;10.70;;;;;;;;;;5072526;28;20488;-76
2022/08/12 04:08:56;;;;;;;12.80;10.40;;;17.50;99.90;;;;;;5075084;28;20422;-76
2022/08/12 04:14:19;;;;;;;13.23;9.93;;;;;;;;;;5089058;28;20453;-76
2022/08/12 04:16:49;;;;;;;13.55;10.15;;;;;;;;;;5088147;28;20830;-77
2022/08/12 04:19:17;;;;;;;14.57;10.20;;;17.50;99.90;;;;;;5055535;28;20785;-77
2022/08/12 04:21:43;;;;;;;14.90;10.40;;;;;;;;;;5090875;28;20909;-77
2022/08/12 04:24:09;;;;;;;15.63;10.30;;;;;;;;;;5086203;28;20909;-77
2022/08/12 04:26:35;;;;;;;12.70;10.57;;;17.50;99.90;;;;;;5091630;28;20497;-77
2022/08/12 04:29:02;;;;;;;13.87;10.97;;;17.30;99.90;;;;;;5073170;28;20503;-75
2022/08/12 04:31:35;;;;;;;14.52;11.05;;;17.40;99.90;;;;;;5074742;28;20871;-74
2022/08/12 04:34:03;;;;;;;13.65;10.82;;;17.50;99.90;;;;;;5092473;28;20481;-75
2022/08/12 04:36:30;;;;;;;14.45;10.68;;;;;;;;;;5073923;28;20962;-76
2022/08/12 04:38:57;;;;;;;15.37;10.43;;;17.20;99.90;;;;;;5073704;28;20505;-76
2022/08/12 04:41:23;;;;;;;12.82;10.27;;;17.30;99.90;;;;;;5074055;28;20414;-75
2022/08/12 04:43:50;;;;;;;13.20;10.65;;;;;;;;;;5073148;28;20758;-75
2022/08/12 04:46:17;;;;;;;14.20;10.27;;;;;;;;;;5088044;28;20428;-75
2022/08/12 04:48:43;;;;;;;13.40;10.60;;;;;;;;;;5106528;28;20422;-75
2022/08/12 04:51:09;;;;;;;14.50;10.93;;;17.30;99.90;;;;;;5071966;28;20418;-75
2022/08/12 04:53:35;;;;;;;13.27;9.68;;;;;;;;;;5077209;28;20423;-75
2022/08/12 04:56:01;;;;;;;14.90;10.73;;;17.30;99.90;;;;;;5074325;28;20429;-75
2022/08/12 04:58:27;;;;;;;11.85;9.93;;;;;;;;;;5078294;28;20432;-75
2022/08/12 05:00:53;;;;;;;13.05;9.80;;;17.40;99.90;;;;;;5068401;28;20433;-75
2022/08/12 05:03:19;;;;;;;12.13;9.20;;;;;;;;;;5094991;28;20775;-75
2022/08/12 05:05:45;;;;;;;13.05;9.65;;;;;;;;;;5084501;28;20424;-76
2022/08/12 05:08:14;;;;;;;11.20;9.38;;;17.20;99.90;;;;;;5091021;28;20823;-76
2022/08/12 05:10:42;;;;;;;14.20;9.30;;;17.80;99.90;;;;;;5075036;28;20406;-77
2022/08/12 05:13:11;;;;;;;11.68;8.77;;;17.50;99.90;;;;;;5073936;28;20413;-77
2022/08/12 05:15:38;;;;;;;13.32;8.60;;;17.70;99.90;;;;;;5075531;28;20773;-76
2022/08/12 05:18:04;;;;;;;12.30;9.00;;;;;;;;;;5074561;28;20452;-76
2022/08/12 05:20:30;;;;;;;11.20;8.85;;;17.60;99.90;;;;;;5076697;28;20999;-77
2022/08/12 05:23:10;;;;;;;13.10;8.63;;;;;;;;;;5067184;28;20493;-77
2022/08/12 05:25:36;;;;;;;13.60;8.20;;;17.70;99.90;;;;;;5074317;28;20816;-77
2022/08/12 05:28:04;;;;;;;9.85;8.43;;;;;;;;;;5059518;28;20838;-77
2022/08/12 05:30:32;;;;;;;14.68;8.75;;;;;;;;;;5087024;28;20426;-76
2022/08/12 05:33:05;;;;;;;11.93;8.27;;;17.90;99.90;;;;;;5074303;28;20402;-76
2022/08/12 05:35:40;;;;;;;10.70;8.23;;;;;;;;;;5074353;28;20445;-76
2022/08/12 05:40:51;;;;;;;13.90;7.93;;;;;;;;;;5106850;28;20471;-76
2022/08/12 05:43:18;;;;;;;11.60;7.95;;;;;;;;;;5091199;28;20394;-77
2022/08/12 05:45:48;;;;;;;12.85;8.45;;;;;;;;;;5071810;28;20430;-76
2022/08/12 05:48:14;;;;;;;13.27;7.97;;;;;;;;;;5100795;28;20465;-76
2022/08/12 05:50:41;;;;;;;11.68;8.23;;;;;;;;;;5070845;28;20497;-75
2022/08/12 05:53:07;;;;;;;10.90;7.77;;;;;;;;;;5074037;28;20400;-75
2022/08/12 05:55:34;;;;;;;12.90;8.00;;;18.40;99.90;;;;;;5072542;28;20551;-75
2022/08/12 05:58:03;;;;;;;12.35;7.93;;;18.60;99.90;;;;;;5101431;28;20422;-75
2022/08/12 06:00:30;;;;;;;12.98;8.27;;;18.40;99.90;;;;;;5101151;28;20424;-75
2022/08/12 06:03:03;;;;;;;11.00;7.73;;;18.70;99.90;;;;;;5088451;28;20399;-75
2022/08/12 06:05:35;;;;;;;12.90;7.97;;;;;;;;;;5053591;28;20476;-75
2022/08/12 06:08:04;;;;;;;12.13;7.43;;;;;;;;;;5071411;28;20425;-75
2022/08/12 06:10:31;;;;;;;10.65;7.22;;;;;;;;;;5089728;28;20420;-75
2022/08/12 06:12:57;;;;;;;9.32;6.93;;;19.20;99.90;;;;;;5055315;28;20418;-76
2022/08/12 06:15:23;;;;;;;10.75;6.93;;;19.40;99.90;;;;;;5072446;28;20414;-74
2022/08/12 06:17:49;;;;;;;10.50;6.43;;;19.60;99.90;;;;;;5070466;28;20763;-75
2022/08/12 06:20:15;;;;;;;11.02;6.30;;;19.60;99.90;;;;;;5106307;28;20434;-74
2022/08/12 06:22:50;;;;;;;8.48;6.80;;;20.00;99.90;;;;;;5100686;28;20445;-75
2022/08/12 06:25:19;;;;;;;12.37;6.07;;;20.00;99.90;;;;;;5065128;28;20463;-74
2022/08/12 06:27:47;;;;;;;10.57;6.55;;;19.90;99.90;;;;;;5068159;28;20901;-74
2022/08/12 06:30:19;;;;;;;10.67;6.27;;;20.00;99.90;;;;;;5069308;28;20433;-74
2022/08/12 06:32:46;;;;;;;8.13;5.90;;;;;;;;;;5101169;28;20471;-74
2022/08/12 06:35:13;;;;;;;9.02;5.75;;;20.80;99.90;;;;;;5068852;28;20963;-74
2022/08/12 06:37:40;;;;;;;7.15;5.85;;;20.40;99.90;;;;;;5069447;28;20938;-74
2022/08/12 06:40:09;;;;;;;9.43;5.60;;;20.80;99.90;;;;;;5072856;28;20884;-74
2022/08/12 06:42:50;;;;;;;7.63;5.57;;;;;;;;;;5065724;28;20432;-74
2022/08/12 06:45:21;;;;;;;8.23;5.75;;;20.90;99.90;;;;;;5068750;28;20421;-74
2022/08/12 06:47:47;;;;;;;7.95;4.97;;;21.00;99.90;;;;;;5067027;28;20429;-74
2022/08/12 06:50:17;;;;;;;9.85;5.28;;;21.10;99.90;;;;;;5077591;28;20417;-74
2022/08/12 06:52:43;;;;;;;8.50;4.88;;;21.30;99.90;;;;;;5062644;28;20422;-74
2022/08/12 06:55:19;;;;;;;8.15;4.65;;;21.10;99.90;;;;;;5064884;28;20905;-74
2022/08/12 06:58:00;;;;;;;7.78;4.70;;;21.20;99.90;;;;;;5085695;28;21175;-74
2022/08/12 07:00:29;;;;;;;10.27;4.80;;;21.80;99.90;;;;;;5099963;28;20501;-75
2022/08/12 07:02:56;;;;;;;7.30;4.30;;;21.80;99.90;;;;;;5067949;28;20418;-74
2022/08/12 07:05:23;;;;;;;7.63;4.40;;;21.90;99.90;;;;;;5065619;28;20421;-74
2022/08/12 07:07:52;;;;;;;7.80;4.30;;;22.00;99.90;;;;;;5069032;28;20453;-74
2022/08/12 07:10:22;;;;;;;6.28;3.75;;;22.10;99.90;;;;;;5069772;28;20420;-74
2022/08/12 07:12:53;;;;;;;8.38;4.40;;;22.30;99.90;;;;;;5056168;28;20795;-74
2022/08/12 07:15:23;;;;;;;9.47;4.20;;;22.30;99.90;;;;;;5073115;28;20401;-74
2022/08/12 07:17:50;;;;;;;8.73;3.80;;;22.60;99.90;;;;;;5072937;28;20402;-74
2022/08/12 07:20:16;;;;;;;9.38;3.90;;;22.80;99.90;;;;;;5104591;28;20422;-74
2022/08/12 07:22:42;;;;;;;8.75;3.78;;;23.10;99.90;;;;;;5106989;28;20401;-74
2022/08/12 07:27:53;;;;;;;6.28;3.40;;;23.50;99.90;;;;;;5101511;28;20406;-74
2022/08/12 07:30:20;;;;;;;6.97;3.55;;;23.80;99.90;;;;;;5071062;28;20495;-74
2022/08/12 07:32:48;;;;;;;7.13;3.40;;;23.50;99.90;;;;;;5019304;28;20421;-74
2022/08/12 07:35:16;;;;;;;9.25;3.20;;;23.70;99.90;;;;;;5072914;28;20417;-75
2022/08/12 07:37:43;;;;;;;7.00;3.40;;;23.70;99.90;;;;;;5072117;28;20433;-75
2022/08/12 07:40:10;;;;;;;9.70;3.58;;;23.60;99.90;;;;;;5089941;28;20631;-75
2022/08/12 07:42:38;;;;;;;7.47;3.60;;;24.00;99.90;;;;;;5104995;28;20430;-75
2022/08/12 07:45:06;;;;;;;9.75;3.50;;;24.20;99.90;;;;;;5104452;28;20413;-75
2022/08/12 07:47:33;;;;;;;5.80;2.93;;;24.40;99.90;;;;;;5069817;28;20890;-75
2022/08/12 07:50:00;;;;;;;7.80;2.92;;;24.50;99.90;;;;;;5106367;28;20560;-75
2022/08/12 07:52:27;;;;;;;6.75;2.90;;;24.80;99.90;;;;;;5101625;28;20461;-74
2022/08/12 07:54:53;;;;;;;7.07;3.00;;;24.70;99.90;;;;;;5069585;28;20494;-74
2022/08/12 07:57:19;;;;;;;11.98;3.17;;;25.00;99.90;;;;;;5090679;28;20436;-74
2022/08/12 07:59:45;;;;;;;5.90;3.13;;;25.10;99.90;;;;;;5072507;28;20506;-74
2022/08/12 08:02:11;;;;;;;5.32;3.00;;;25.40;99.90;;;;;;5092094;28;20873;-74
2022/08/12 08:04:55;;;;;;;6.18;2.90;;;25.30;99.90;;;;;;5108110;28;20747;-74
2022/08/12 08:07:24;;;;;;;10.23;3.42;;;25.60;99.90;;;;;;5091591;28;20475;-74
2022/08/12 08:09:52;;;;;;;6.50;2.60;;;25.60;99.90;;;;;;5108584;28;20471;-74
2022/08/12 08:15:03;;;;;;;7.47;3.00;;;26.00;99.90;;;;;;5085782;28;20430;-75
2022/08/12 08:17:29;;;;;;;6.75;2.80;;;26.20;99.90;;;;;;5073848;28;20551;-75
2022/08/12 08:19:55;;;;;;;6.07;3.00;;;26.50;99.90;;;;;;5054987;28;20512;-74
2022/08/12 08:22:21;;;;;;;7.43;2.90;;;26.20;99.90;;;;;;5089055;28;20921;-74
2022/08/12 08:24:56;;;;;;;5.15;2.70;;;26.50;99.90;;;;;;5072038;28;20417;-74
2022/08/12 08:27:22;;;;;;;5.90;2.77;;;26.90;99.90;;;;;;5088940;28;20421;-74
2022/08/12 08:29:48;;;;;;;7.03;2.92;;;27.20;99.90;;;;;;5072736;28;20421;-74
2022/08/12 08:32:14;;;;;;;6.68;2.60;;;27.10;99.90;;;;;;5065537;28;20946;-74
2022/08/12 08:34:40;;;;;;;6.83;3.00;;;26.90;99.90;;;;;;5072383;28;21005;-74
2022/08/12 08:37:06;;;;;;;5.40;2.78;;;27.20;99.90;;;;;;5072831;28;20418;-74
2022/08/12 08:39:33;;;;;;;6.25;2.80;;;27.70;99.90;;;;;;5071439;28;20523;-73
2022/08/12 08:44:43;;;;;;;5.67;2.83;;;27.70;99.90;;;;;;5082201;28;20458;-75
2022/08/12 08:47:11;;;;;;;5.83;2.70;;;27.00;99.90;;;;;;5067180;28;20433;-75
2022/08/12 08:49:38;;;;;;;6.70;2.70;;;27.80;99.90;;;;;;5068660;28;20512;-75
2022/08/12 08:52:06;;;;;;;5.35;2.80;;;27.80;99.90;;;;;;5051043;28;20459;-75
2022/08/12 08:54:32;;;;;;;7.15;2.90;;;27.80;99.90;;;;;;5073719;28;20425;-75
2022/08/12 08:57:00;;;;;;;6.18;2.60;;;27.50;99.90;;;;;;5068948;28;20430;-75
2022/08/12 08:59:27;;;;;;;8.73;3.00;;;28.10;99.90;;;;;;5093056;28;20418;-75
2022/08/12 09:01:53;;;;;;;7.40;3.30;;;28.00;99.90;;;;;;5054662;28;20490;-75
2022/08/12 09:04:19;;;;;;;5.95;2.65;;;28.20;99.90;;;;;;5089584;28;20533;-75
2022/08/12 09:06:48;;;;;;;7.37;2.60;;;28.80;99.90;;;;;;5098538;28;21144;-75
2022/08/12 09:09:16;;;;;;;5.95;2.70;;;28.60;99.90;;;;;;5046155;28;20428;-75
2022/08/12 09:14:26;;;;;;;5.32;2.75;;;28.60;99.90;;;;;;5102181;28;20444;-75
2022/08/12 09:16:52;;;;;;;6.67;2.97;;;29.00;99.90;;;;;;5071923;28;20921;-75
2022/08/12 09:19:18;;;;;;;6.55;2.70;;;29.40;99.90;;;;;;5104498;28;20414;-75
2022/08/12 09:21:47;;;;;;;5.10;2.63;;;29.00;99.90;;;;;;5101568;28;20444;-75
2022/08/12 09:24:17;;;;;;;5.60;3.00;;;29.10;99.90;;;;;;5082645;28;20464;-75
2022/08/12 09:26:45;;;;;;;4.35;2.78;;;29.50;99.90;;;;;;5050052;28;20956;-75
2022/08/12 09:29:12;;;;;;;5.40;2.65;;;29.20;99.90;;;;;;5064866;28;21140;-74
2022/08/12 09:31:40;;;;;;;9.18;3.17;;;29.50;99.90;;;;;;5100674;28;20433;-75
2022/08/12 09:34:08;;;;;;;11.07;3.00;;;29.70;99.90;;;;;;5080125;28;20468;-79
2022/08/12 09:36:37;;;;;;;11.63;3.08;;;30.10;99.90;;;;;;5059189;28;20951;-75
2022/08/12 09:39:05;;;;;;;5.97;2.90;;;30.20;99.90;;;;;;5100082;27;20522;-75
2022/08/12 09:41:41;;;;;;;5.47;2.75;;;30.40;99.90;;;;;;5093573;28;20431;-75
2022/08/12 09:46:51;;;;;;;8.20;2.80;;;29.80;99.90;;;;;;5101026;28;20422;-75
2022/08/12 09:49:17;;;;;;;11.68;3.28;;;30.30;99.90;;;;;;5068792;28;20789;-75
2022/08/12 09:51:45;;;;;;;7.10;2.65;;;30.40;99.90;;;;;;5085001;28;20426;-75
2022/08/12 09:54:11;;;;;;;8.20;2.90;;;30.50;99.90;;;;;;5102211;28;20838;-75
2022/08/12 09:56:41;;;;;;;5.25;2.88;;;30.20;99.90;;;;;;5075303;28;20412;-75
2022/08/12 09:59:08;;;;;;;12.00;3.20;;;30.30;99.60;;;;;;5063611;28;20579;-75
2022/08/12 10:01:38;;;;;;;7.78;2.70;;;30.20;99.40;;;;;;5107708;28;20455;-75
2022/08/12 10:04:09;;;;;;;10.55;2.83;;;30.20;99.10;;;;;;5074000;28;20425;-75
2022/08/12 10:06:38;;;;;;;6.10;2.70;;;30.70;99.70;;;;;;5064462;28;20433;-75
2022/08/12 10:09:08;;;;;;;7.45;2.97;;;30.60;98.50;;;;;;5068668;28;20430;-75
2022/08/12 10:14:20;;;;;;;8.20;3.10;;;30.80;98.90;;;;;;5106606;28;20575;-75
2022/08/12 10:16:48;;;;;;;5.80;3.17;;;30.90;98.80;;;;;;5104432;28;20961;-75
2022/08/12 10:19:15;;;;;;;6.28;2.63;;;30.90;98.60;;;;;;5071748;28;20454;-75
2022/08/12 10:21:41;;;;;;;8.70;2.90;;;31.10;98.00;;;;;;5071473;28;20418;-75
2022/08/12 10:24:14;;;;;;;7.22;3.10;;;31.20;97.40;;;;;;5103608;28;21242;-75
2022/08/12 10:29:38;;;;;;;6.65;2.88;;;31.20;97.30;;;;;;5105493;28;20425;-75
2022/08/12 10:32:30;;;;;;;5.93;2.80;;;31.30;97.10;;;;;;5071341;28;20806;-75
2022/08/12 10:34:57;;;;;;;6.10;2.65;;;31.30;97.00;;;;;;5066165;28;20930;-75
2022/08/12 10:37:23;;;;;;;8.85;3.03;;;31.60;97.00;;;;;;5103582;28;20519;-75
2022/08/12 10:39:49;;;;;;;5.75;2.60;;;31.70;96.80;;;;;;5048954;28;20426;-75
2022/08/12 10:45:03;;;;;;;6.33;2.70;;;31.80;95.50;;;;;;5105108;28;20441;-76
2022/08/12 10:47:31;;;;;;;8.10;3.00;;;32.00;96.50;;;;;;5066563;28;20497;-76
2022/08/12 10:49:58;;;;;;;6.22;3.13;;;31.40;96.10;;;;;;5071624;28;20426;-76
2022/08/12 10:52:25;;;;;;;8.88;3.05;;;31.50;95.90;;;;;;5086510;28;20429;-76
2022/08/12 10:54:52;;;;;;;7.22;2.90;;;31.80;95.70;;;;;;5071529;28;20425;-75
2022/08/12 10:57:19;;;;;;;8.05;3.40;;;32.10;95.80;;;;;;5087720;28;20427;-76
2022/08/12 10:59:45;;;;;;;7.17;3.00;;;31.70;95.50;;;;;;5071111;28;20466;-75
2022/08/12 11:02:14;;;;;;;7.35;2.83;;;31.20;95.50;;;;;;5068828;28;20438;-75
2022/08/12 11:04:41;;;;;;;9.15;3.10;;;30.90;94.90;;;;;;5077803;28;20415;-76
2022/08/12 11:07:08;;;;;;;7.03;2.90;;;31.00;96.10;;;;;;5060529;28;20467;-76
2022/08/12 11:09:36;;;;;;;9.80;2.80;;;31.00;95.70;;;;;;5100877;28;20433;-78
2022/08/12 11:12:05;;;;;;;6.60;2.80;;;29.90;95.50;;;;;;5068541;28;20490;-77
2022/08/12 11:14:37;;;;;;;6.30;2.70;;;31.50;95.50;;;;;;5071531;28;20425;-77
2022/08/12 11:17:06;;;;;;;8.93;2.63;;;31.20;94.50;;;;;;5082216;28;20516;-76
2022/08/12 11:19:36;;;;;;;4.47;2.40;;;31.50;95.40;;;;;;5060943;28;20508;-77
2022/08/12 11:22:03;;;;;;;6.68;2.65;;;31.70;94.10;;;;;;5081556;28;20800;-76
2022/08/12 11:24:29;;;;;;;8.23;2.88;;;31.40;94.70;;;;;;5074435;28;20525;-76
2022/08/12 11:26:56;;;;;;;5.85;2.75;;;31.70;94.50;;;;;;5070767;28;20444;-76
2022/08/12 11:29:24;;;;;;;7.85;2.65;;;31.70;93.80;;;;;;5073474;28;20445;-76
2022/08/12 11:31:51;;;;;;;5.72;2.55;;;31.50;94.30;;;;;;5053379;28;20858;-76
2022/08/12 11:34:17;;;;;;;6.55;2.60;;;31.90;94.30;;;;;;5064506;28;20410;-76
2022/08/12 11:36:51;;;;;;;7.80;2.70;;;32.00;94.00;;;;;;5073516;28;20449;-76
2022/08/12 11:39:17;;;;;;;6.63;2.60;;;32.10;93.50;;;;;;5058248;28;20458;-76
2022/08/12 11:41:43;;;;;;;8.18;2.67;;;32.40;93.50;;;;;;5089139;28;20413;-76
2022/08/12 11:44:08;;;;;;;5.85;2.60;;;32.40;92.70;;;;;;5074798;28;20405;-76
2022/08/12 11:46:38;;;;;;;7.37;2.47;;;32.60;92.60;;;;;;5063301;28;20421;-77
2022/08/12 11:49:05;;;;;;;7.20;2.50;;;32.80;92.70;;;;;;5065258;28;20765;-76
2022/08/12 11:51:32;;;;;;;5.75;2.67;;;32.80;92.10;;;;;;5054432;28;20516;-76
2022/08/12 11:53:58;;;;;;;4.70;2.35;;;33.00;91.60;;;;;;5045368;28;20413;-76
2022/08/12 11:56:24;;;;;;;8.65;2.70;;;33.10;91.50;;;;;;5074463;28;20497;-75
2022/08/12 11:58:49;;;;;;;7.47;2.42;;;33.40;91.30;;;;;;5101957;28;21001;-76
2022/08/12 12:01:16;;;;;;;7.40;2.60;;;32.20;91.30;;;;;;5070349;28;20447;-76
2022/08/12 12:03:41;;;;;;;5.45;2.50;;;33.10;91.80;;;;;;5074547;28;20930;-76
2022/08/12 12:06:07;;;;;;;5.75;2.58;;;33.30;91.80;;;;;;5056859;28;20453;-76
2022/08/12 12:08:33;;;;;;;4.93;2.10;;;33.20;91.30;;;;;;5087840;28;20755;-75
2022/08/12 12:10:59;;;;;;;5.90;2.40;;;32.80;91.00;;;;;;5071110;28;20501;-74
2022/08/12 12:13:24;;;;;;;5.63;2.88;;;32.90;90.80;;;;;;5090142;28;20935;-75
2022/08/12 12:15:50;;;;;;;7.93;2.50;;;33.00;90.90;;;;;;5106632;28;20422;-75
2022/08/12 12:18:24;;;;;;;6.43;2.43;;;33.20;90.60;;;;;;5055856;28;20412;-75
2022/08/12 12:20:52;;;;;;;7.32;2.40;;;33.60;91.00;;;;;;5070319;28;20727;-75
2022/08/12 12:23:18;;;;;;;9.63;2.60;;;32.70;90.50;;;;;;5074554;28;20459;-74
2022/08/12 12:25:45;;;;;;;5.57;2.17;;;32.90;90.70;;;;;;5072213;28;20414;-75
2022/08/12 12:28:11;;;;;;;6.55;2.40;;;32.70;90.30;;;;;;5052381;28;20736;-75
2022/08/12 12:30:37;;;;;;;4.57;2.42;;;33.10;90.60;;;;;;5056912;28;20413;-75
2022/08/12 12:33:04;;;;;;;6.00;2.35;;;33.40;90.20;;;;;;5084234;28;20729;-75
2022/08/12 12:35:30;;;;;;;7.07;2.60;;;33.60;90.10;;;;;;5069942;28;20430;-75
2022/08/12 12:37:57;;;;;;;4.05;2.15;;;34.00;89.20;;;;;;5052564;28;20426;-75
2022/08/12 12:40:25;;;;;;;6.13;2.40;;;34.30;89.70;;;;;;5069223;28;20774;-75
2022/08/12 12:42:51;;;;;;;5.13;2.42;;;34.00;89.20;;;;;;5088342;28;20421;-74
2022/08/12 12:45:17;;;;;;;5.18;2.15;;;33.30;88.80;;;;;;5064938;28;20511;-75
2022/08/12 12:48:01;;;;;;;4.70;2.00;;;33.60;88.80;;;;;;5065286;28;20410;-75
2022/08/12 12:50:36;;;;;;;5.05;1.92;;;33.60;88.70;;;;;;5090855;28;20917;-75
2022/08/12 12:53:05;;;;;;;6.95;2.30;;;33.40;86.80;;;;;;5071497;28;20422;-75
2022/08/12 12:55:34;;;;;;;5.50;2.13;;;33.10;88.00;;;;;;5075024;28;20451;-75
2022/08/12 12:58:03;;;;;;;4.70;1.97;;;33.20;90.00;;;;;;5087838;28;20503;-75
2022/08/12 13:00:31;;;;;;;5.43;2.13;;;33.10;89.40;;;;;;5066598;28;20418;-76
2022/08/12 13:02:57;;;;;;;4.30;1.90;;;32.60;88.80;;;;;;5105349;28;20421;-75
2022/08/12 13:05:33;;;;;;;4.40;2.10;;;32.60;89.30;;;;;;5072490;28;20418;-76
2022/08/12 13:08:00;;;;;;;5.00;2.10;;;32.10;89.00;;;;;;5049463;28;20471;-76
2022/08/12 13:10:28;;;;;;;5.65;2.10;;;33.30;88.20;;;;;;5064018;28;20423;-76
2022/08/12 13:12:54;;;;;;;5.47;2.28;;;33.50;88.50;;;;;;5063845;28;20418;-76
2022/08/12 13:15:20;;;;;;;4.53;2.23;;;32.80;87.30;;;;;;5050430;28;20414;-77
2022/08/12 13:17:48;;;;;;;4.70;2.17;;;33.50;88.30;;;;;;5060618;28;20956;-77
2022/08/12 13:20:19;;;;;;;4.80;2.03;;;33.30;88.40;;;;;;5071826;28;20535;-77
2022/08/12 13:22:46;;;;;;;6.93;2.10;;;33.40;87.90;;;;;;5067181;28;20475;-77
2022/08/12 13:25:18;;;;;;;9.18;2.35;;;33.90;87.80;;;;;;5097605;28;20414;-77
2022/08/12 13:27:49;;;;;;;5.50;1.90;;;33.80;87.20;;;;;;5102259;28;20484;-77
2022/08/12 13:30:20;;;;;;;6.10;2.13;;;32.60;85.00;;;;;;5101669;28;20417;-76
2022/08/12 13:32:57;;;;;;;4.00;1.80;;;33.50;87.60;;;;;;5048419;28;20420;-77
2022/08/12 13:35:34;;;;;;;7.72;2.10;;;34.00;86.70;;;;;;5056471;28;20972;-77
2022/08/12 13:38:00;;;;;;;5.22;1.90;;;33.80;86.10;;;;;;5073011;28;20410;-77
2022/08/12 13:40:33;;;;;;;5.70;2.00;;;33.90;86.40;;;;;;5098909;28;20947;-77
2022/08/12 13:43:00;;;;;;;6.32;2.10;;;33.60;83.80;;;;;;5069255;28;20410;-77
2022/08/12 13:45:30;;;;;;;5.45;2.15;;;33.60;86.50;;;;;;5107750;28;20524;-77
2022/08/12 13:47:58;;;;;;;6.05;1.95;;;33.70;85.80;;;;;;5065914;28;21778;-77
2022/08/12 13:50:32;;;;;;;4.88;1.90;;;34.20;85.80;;;;;;5089029;28;21054;-76
2022/08/12 13:53:00;;;;;;;3.87;1.87;;;34.10;85.40;;;;;;5069898;28;20418;-77
2022/08/12 13:55:27;;;;;;;7.97;2.30;;;33.70;86.10;;;;;;5098696;28;20882;-76
2022/08/12 13:57:54;;;;;;;3.55;2.00;;;33.60;86.40;;;;;;5073991;28;20946;-77
2022/08/12 14:00:21;;;;;;;3.25;1.90;;;32.80;86.80;;;;;;5067793;28;20424;-76
2022/08/12 14:02:47;;;;;;;6.22;2.17;;;33.00;87.60;;;;;;5065831;28;20495;-76
2022/08/12 14:05:13;;;;;;;5.65;2.10;;;33.00;88.00;;;;;;5033572;28;20421;-76
2022/08/12 14:08:05;;;;;;;5.32;2.20;;;32.90;88.00;;;;;;5065882;28;20416;-77
2022/08/12 14:10:35;;;;;;;7.50;2.10;;;33.10;85.80;;;;;;5066197;28;20448;-76
2022/08/12 14:13:28;;;;;;;6.20;2.00;;;33.00;87.20;;;;;;5053481;28;20537;-76
2022/08/12 14:15:59;;;;;;;3.67;2.00;;;33.00;87.90;;;;;;5041843;28;20437;-76
2022/08/12 14:18:27;;;;;;;5.38;2.42;;;33.10;87.30;;;;;;5062607;28;20504;-76
2022/08/12 14:21:00;;;;;;;5.90;2.08;;;32.30;87.60;;;;;;5066070;28;20534;-75
2022/08/12 14:23:31;;;;;;;5.83;1.97;;;32.40;88.40;;;;;;5063521;28;20943;-76
2022/08/12 14:25:57;;;;;;;5.25;2.30;;;32.10;88.30;;;;;;5066509;28;20415;-76
2022/08/12 14:28:24;;;;;;;7.90;2.20;;;32.50;88.50;;;;;;5064842;28;20487;-75
2022/08/12 14:30:55;;;;;;;6.17;2.00;;;31.90;87.80;;;;;;5061081;28;20405;-75
2022/08/12 14:33:28;;;;;;;5.53;2.22;;;32.10;88.70;;;;;;5056011;28;20431;-75
2022/08/12 14:35:54;;;;;;;3.75;2.10;;;32.20;88.70;;;;;;5066866;28;20431;-75
2022/08/12 14:38:26;;;;;;;4.57;2.10;;;32.00;88.30;;;;;;5045897;28;21224;-75
2022/08/12 14:40:57;;;;;;;5.22;2.17;;;32.00;88.10;;;;;;5064946;28;20485;-75
2022/08/12 14:43:26;;;;;;;4.13;2.22;;;32.00;89.00;;;;;;5065017;28;20776;-75
2022/08/12 14:45:53;;;;;;;5.43;2.15;;;31.90;89.30;;;;;;5064089;28;20493;-75
2022/08/12 14:48:19;;;;;;;4.87;2.23;;;32.00;88.90;;;;;;5050471;28;20807;-75
2022/08/12 14:50:49;;;;;;;5.28;2.33;;;32.00;89.10;;;;;;5067366;28;20796;-75
2022/08/12 14:53:16;;;;;;;5.40;2.15;;;32.10;89.70;;;;;;5063523;28;20423;-75
2022/08/12 14:55:48;;;;;;;4.60;2.35;;;32.10;88.50;;;;;;5055042;28;20421;-76
2022/08/12 14:58:19;;;;;;;4.10;2.35;;;32.30;87.80;;;;;;5063579;28;20459;-75